Lexington, Texas
Current Conditions -  °F | °C
As of 1:15 PM on Sunday 23 Nov 2014 (Local Time) from KGYB Reporting Station
Clear Clear  
Wind Chill: 77°   Ceiling: Unl
Heat Index: 78°   Visibility: 10mi
Dew Point: 48°   Wind: 13mph
Humidity: 36%   Direction: 250°WSW
Pressure: 29.58"   Gusts: 21mph
Location:  30.42°N, 97.01°W
Report Text: KGYB 231915Z AUTO 25011G18KT 10SM CLR 25/09 A2958 RMK AO2 T02500089
Loading
Personal Weather Stations






























Interactive Weather Map New forecast layout! Learn more

10-Day Weather Forecast

Advertisements
Track Severe Weather on mobile